Time;durP1;ratioP1;P1;durP2;ratioP2;P2;SDS_P1;SDS_P2;PMS_P1;PMS_P2;Temp;Humidity;BMP_temperature;BMP_pressure;BME280_temperature;BME280_humidity;BME280_pressure;Samples;Min_cycle;Max_cycle;Signal;HPM_P1;HPM_P2
2022/03/27 00:01:04;;;;;;;;;;;;;;;16.64;100.00;100388.44;5065873;28;19920;-60
2022/03/27 00:03:31;;;;;;;;;;;;;;;16.54;100.00;100394.88;5064849;28;20310;-62
2022/03/27 00:05:57;;;;;;;;;;;;;;;16.42;100.00;100392.66;5065597;28;19921;-62
2022/03/27 00:08:23;;;;;;;;;;;;;;;16.48;100.00;100392.47;5065753;28;19916;-62
2022/03/27 00:13:32;;;;;;;;;;;;;;;16.11;100.00;100396.31;5066257;28;19931;-62
2022/03/27 00:15:57;;;;;;;;;;;;;;;16.19;100.00;100391.69;5065850;28;19916;-62
2022/03/27 00:18:23;;;;;;;;;;;;;;;15.78;100.00;100398.22;5065801;28;19951;-62
2022/03/27 00:20:48;;;;;;;;;;;;;;;14.79;100.00;100392.41;5065351;28;19926;-62
2022/03/27 00:23:13;;;;;;;;;;;;;;;14.85;100.00;100397.44;5065883;28;20248;-62
2022/03/27 00:25:39;;;;;;;;;;;;;;;15.13;100.00;100396.66;5065828;28;19947;-62
2022/03/27 00:28:04;;;;;;;;;;;;;;;16.09;100.00;100398.94;5065888;28;19917;-62
2022/03/27 00:30:30;;;;;;;;;;;;;;;16.23;100.00;100390.69;5066150;28;19971;-62
2022/03/27 00:32:57;;;;;;;;;;;;;;;16.55;100.00;100393.13;5065810;28;19921;-63
2022/03/27 00:35:22;;;;;;;;;;;;;;;16.39;100.00;100390.19;5065694;28;19920;-62
2022/03/27 00:37:48;;;;;;;;;;;;;;;15.37;100.00;100401.16;5065691;28;19921;-62
2022/03/27 00:40:14;;;;;;;;;;;;;;;15.32;100.00;100397.81;5065789;28;19920;-62
2022/03/27 00:42:39;;;;;;;;;;;;;;;15.62;100.00;100400.38;5048089;28;20752;-62
2022/03/27 00:45:06;;;;;;;;;;;;;;;16.25;100.00;100394.09;5066383;28;19966;-61
2022/03/27 00:47:31;;;;;;;;;;;;;;;16.45;100.00;100390.81;5064757;28;19920;-61
2022/03/27 00:49:57;;;;;;;;;;;;;;;16.29;100.00;100390.50;5065870;28;19924;-62
2022/03/27 00:52:22;;;;;;;;;;;;;;;16.06;100.00;100386.06;5065317;28;19973;-62
2022/03/27 00:54:47;;;;;;;;;;;;;;;16.08;100.00;100388.63;5065226;28;19963;-61
2022/03/27 00:57:13;;;;;;;;;;;;;;;16.25;100.00;100391.50;5065874;28;20965;-62
2022/03/27 00:59:38;;;;;;;;;;;;;;;16.10;100.00;100386.78;5068963;28;19928;-62
2022/03/27 01:02:03;;;;;;;;;;;;;;;16.06;100.00;100385.22;5068442;28;19963;-62
2022/03/27 01:04:29;;;;;;;;;;;;;;;15.57;100.00;100391.91;5068551;28;20301;-63
2022/03/27 01:06:54;;;;;;;;;;;;;;;15.25;100.00;100383.31;5068666;28;19920;-63
2022/03/27 01:09:38;;;;;;;;;;;;;;;15.18;100.00;100381.81;5051472;28;19963;-62
2022/03/27 01:12:14;;;;;;;;;;;;;;;14.80;100.00;100386.31;5069460;28;19966;-62
2022/03/27 01:14:39;;;;;;;;;;;;;;;15.19;100.00;100380.88;5069358;28;20440;-63
2022/03/27 01:17:09;;;;;;;;;;;;;;;14.23;100.00;100382.56;5068383;28;19921;-62
2022/03/27 01:19:34;;;;;;;;;;;;;;;14.03;100.00;100383.06;5069605;28;19920;-63
2022/03/27 01:22:00;;;;;;;;;;;;;;;13.02;100.00;100377.47;5056549;28;19939;-62
2022/03/27 01:24:26;;;;;;;;;;;;;;;14.11;100.00;100377.69;5058392;28;19952;-62
2022/03/27 01:26:51;;;;;;;;;;;;;;;14.44;100.00;100376.00;5053392;28;19924;-62
2022/03/27 01:29:17;;;;;;;;;;;;;;;14.89;100.00;100373.09;5070373;28;19959;-62
2022/03/27 01:31:42;;;;;;;;;;;;;;;14.28;100.00;100369.50;5068988;28;19917;-61
2022/03/27 01:34:07;;;;;;;;;;;;;;;14.84;100.00;100374.97;5071060;28;19912;-62
2022/03/27 01:36:36;;;;;;;;;;;;;;;14.44;100.00;100366.47;5070360;28;19931;-62
2022/03/27 01:39:05;;;;;;;;;;;;;;;15.14;100.00;100375.00;5066976;28;19985;-62
2022/03/27 01:41:31;;;;;;;;;;;;;;;14.19;100.00;100375.78;5069360;28;20393;-62
2022/03/27 01:43:56;;;;;;;;;;;;;;;14.12;100.00;100372.47;5070048;28;19912;-62
2022/03/27 01:46:22;;;;;;;;;;;;;;;13.38;100.00;100366.41;5069685;28;19966;-62
2022/03/27 01:48:47;;;;;;;;;;;;;;;13.13;100.00;100368.63;5070162;28;19916;-61
2022/03/27 01:51:13;;;;;;;;;;;;;;;13.81;100.00;100375.78;5070395;28;20321;-62
2022/03/27 01:53:38;;;;;;;;;;;;;;;14.34;100.00;100372.78;5051936;28;19931;-62
2022/03/27 01:56:04;;;;;;;;;;;;;;;13.38;100.00;100371.56;5071072;28;19956;-62
2022/03/27 01:58:30;;;;;;;;;;;;;;;12.98;100.00;100372.38;5072280;28;19970;-62
2022/03/27 02:00:56;;;;;;;;;;;;;;;13.17;100.00;100377.19;5071961;28;19924;-59
2022/03/27 02:03:22;;;;;;;;;;;;;;;14.17;100.00;100373.22;5071389;28;19923;-62
2022/03/27 02:05:47;;;;;;;;;;;;;;;13.67;100.00;100377.84;5069122;28;19916;-64
2022/03/27 02:08:13;;;;;;;;;;;;;;;14.08;100.00;100378.63;5067961;28;20298;-62
2022/03/27 02:10:39;;;;;;;;;;;;;;;13.64;100.00;100377.94;5068051;28;20363;-65
2022/03/27 02:13:04;;;;;;;;;;;;;;;13.40;100.00;100374.13;5068594;28;19920;-65
2022/03/27 02:15:30;;;;;;;;;;;;;;;12.63;100.00;100379.94;5050282;28;19955;-65
2022/03/27 02:17:57;;;;;;;;;;;;;;;12.54;100.00;100371.50;5068171;28;19928;-65
2022/03/27 02:20:22;;;;;;;;;;;;;;;12.58;100.00;100376.59;5068404;28;19917;-66
2022/03/27 02:22:48;;;;;;;;;;;;;;;14.36;100.00;100373.59;5050093;28;19916;-65
2022/03/27 02:25:14;;;;;;;;;;;;;;;14.36;100.00;100373.59;5067928;28;19938;-66
2022/03/27 02:27:39;;;;;;;;;;;;;;;13.45;100.00;100377.47;5067606;28;19959;-66
2022/03/27 02:30:07;;;;;;;;;;;;;;;14.25;100.00;100374.75;5067437;28;19927;-66
2022/03/27 02:32:32;;;;;;;;;;;;;;;14.33;100.00;100375.44;5067993;28;19970;-66
2022/03/27 02:34:57;;;;;;;;;;;;;;;13.06;100.00;100369.63;5067955;28;19913;-66
2022/03/27 02:37:23;;;;;;;;;;;;;;;12.74;100.00;100372.84;5067387;28;19994;-65
2022/03/27 02:39:48;;;;;;;;;;;;;;;12.77;100.00;100377.94;5067596;28;19932;-66
2022/03/27 02:42:13;;;;;;;;;;;;;;;12.45;100.00;100369.09;5067798;28;20455;-66
2022/03/27 02:44:39;;;;;;;;;;;;;;;13.31;100.00;100370.00;5068150;28;19916;-66
2022/03/27 02:47:04;;;;;;;;;;;;;;;13.06;100.00;100376.53;5066853;28;20378;-66
2022/03/27 02:49:30;;;;;;;;;;;;;;;12.52;100.00;100380.13;5067764;28;19968;-65
2022/03/27 02:51:56;;;;;;;;;;;;;;;12.63;100.00;100374.78;5067694;28;19920;-66
2022/03/27 02:54:21;;;;;;;;;;;;;;;13.30;100.00;100381.25;5067463;28;19970;-65
2022/03/27 02:56:46;;;;;;;;;;;;;;;12.68;100.00;100378.13;5049916;28;19916;-65
2022/03/27 02:59:12;;;;;;;;;;;;;;;12.71;100.00;100378.94;5067890;28;20263;-66
2022/03/27 03:01:37;;;;;;;;;;;;;;;12.70;100.00;100382.41;5065645;28;19924;-65
2022/03/27 03:04:04;;;;;;;;;;;;;;;12.65;100.00;100386.78;5049776;28;19912;-65
2022/03/27 03:06:30;;;;;;;;;;;;;;;12.72;100.00;100384.94;5067159;28;19935;-66
2022/03/27 03:08:55;;;;;;;;;;;;;;;11.64;100.00;100386.66;5066956;28;19916;-65
2022/03/27 03:11:20;;;;;;;;;;;;;;;11.81;100.00;100383.00;5049423;28;19977;-66
2022/03/27 03:13:52;;;;;;;;;;;;;;;10.89;100.00;100390.19;5067002;28;19912;-66
2022/03/27 03:16:18;;;;;;;;;;;;;;;11.76;100.00;100395.13;5066235;28;19920;-66
2022/03/27 03:18:44;;;;;;;;;;;;;;;12.86;100.00;100401.03;5049225;28;19946;-66
2022/03/27 03:21:09;;;;;;;;;;;;;;;12.04;100.00;100409.38;5066725;28;19999;-66
2022/03/27 03:23:36;;;;;;;;;;;;;;;11.80;100.00;100396.78;5066956;28;19916;-65
2022/03/27 03:26:02;;;;;;;;;;;;;;;12.29;100.00;100396.03;5066468;28;19916;-66
2022/03/27 03:28:27;;;;;;;;;;;;;;;12.14;100.00;100410.91;5066626;28;20264;-66
2022/03/27 03:30:52;;;;;;;;;;;;;;;11.52;100.00;100402.34;5067124;28;19924;-66
2022/03/27 03:33:19;;;;;;;;;;;;;;;11.27;100.00;100402.63;5067002;28;19931;-66
2022/03/27 03:35:45;;;;;;;;;;;;;;;12.63;100.00;100398.88;5067012;28;19972;-66
2022/03/27 03:38:10;;;;;;;;;;;;;;;11.63;100.00;100397.00;5065765;28;20006;-65
2022/03/27 03:40:35;;;;;;;;;;;;;;;12.05;100.00;100405.03;5066755;28;19916;-65
2022/03/27 03:43:01;;;;;;;;;;;;;;;13.20;100.00;100397.81;5066057;28;19973;-65
2022/03/27 03:45:26;;;;;;;;;;;;;;;13.09;100.00;100399.75;5066339;28;19920;-65
2022/03/27 03:47:51;;;;;;;;;;;;;;;12.72;100.00;100403.03;5066421;28;19920;-65
2022/03/27 03:50:17;;;;;;;;;;;;;;;13.02;100.00;100393.84;5066528;28;19920;-65
2022/03/27 03:52:42;;;;;;;;;;;;;;;12.00;100.00;100401.69;5066339;28;19916;-65
2022/03/27 03:55:07;;;;;;;;;;;;;;;13.17;100.00;100392.69;5066785;28;20668;-65
2022/03/27 03:57:33;;;;;;;;;;;;;;;13.69;100.00;100403.72;5066276;28;19962;-65
2022/03/27 03:59:58;;;;;;;;;;;;;;;14.05;100.00;100398.56;5065808;28;19927;-65
2022/03/27 04:02:24;;;;;;;;;;;;;;;14.02;100.00;100404.66;5065850;28;20593;-66
2022/03/27 04:04:49;;;;;;;;;;;;;;;14.24;100.00;100399.81;5066245;28;19924;-66
2022/03/27 04:07:14;;;;;;;;;;;;;;;13.93;100.00;100395.38;5066051;28;19920;-66
2022/03/27 04:09:40;;;;;;;;;;;;;;;14.24;100.00;100394.66;5048297;28;19929;-66
2022/03/27 04:12:05;;;;;;;;;;;;;;;13.57;100.00;100391.88;5066086;28;20974;-65
2022/03/27 04:14:34;;;;;;;;;;;;;;;13.68;100.00;100392.50;5066211;28;20007;-66
2022/03/27 04:17:00;;;;;;;;;;;;;;;13.41;100.00;100396.56;5065910;28;19934;-65
2022/03/27 04:19:25;;;;;;;;;;;;;;;13.38;100.00;100391.44;5066025;28;20796;-65
2022/03/27 04:21:50;;;;;;;;;;;;;;;14.19;100.00;100392.16;5065877;28;19921;-65
2022/03/27 04:24:16;;;;;;;;;;;;;;;14.33;100.00;100388.38;5066024;28;19923;-65
2022/03/27 04:26:41;;;;;;;;;;;;;;;13.42;100.00;100395.66;5065958;28;20015;-65
2022/03/27 04:29:07;;;;;;;;;;;;;;;13.37;100.00;100394.91;5065894;28;19924;-65
2022/03/27 04:31:32;;;;;;;;;;;;;;;12.63;100.00;100387.69;5066187;28;19916;-66
2022/03/27 04:33:58;;;;;;;;;;;;;;;13.90;100.00;100394.59;5069721;28;19947;-65
2022/03/27 04:36:23;;;;;;;;;;;;;;;14.25;100.00;100392.91;5069439;28;19923;-66
2022/03/27 04:38:48;;;;;;;;;;;;;;;13.21;100.00;100393.50;5069221;28;19936;-66
2022/03/27 04:41:14;;;;;;;;;;;;;;;13.04;100.00;100396.41;5069857;28;19952;-66
2022/03/27 04:43:39;;;;;;;;;;;;;;;12.77;100.00;100393.47;5051963;28;19971;-66
2022/03/27 04:46:07;;;;;;;;;;;;;;;12.32;100.00;100396.84;5069689;28;20023;-65
2022/03/27 04:48:32;;;;;;;;;;;;;;;13.13;100.00;100391.91;5069855;28;19916;-65
2022/03/27 04:50:57;;;;;;;;;;;;;;;12.80;100.00;100397.75;5069378;28;20439;-65
2022/03/27 04:53:22;;;;;;;;;;;;;;;12.03;100.00;100399.91;5069419;28;19931;-65
2022/03/27 04:55:49;;;;;;;;;;;;;;;12.68;100.00;100389.34;5069668;28;20353;-65
2022/03/27 04:58:16;;;;;;;;;;;;;;;13.12;100.00;100399.72;5068784;28;19916;-65
2022/03/27 05:00:41;;;;;;;;;;;;;;;12.26;100.00;100401.25;5069061;28;19917;-65
2022/03/27 05:03:06;;;;;;;;;;;;;;;12.85;100.00;100401.94;5069662;28;19924;-65
2022/03/27 05:05:32;;;;;;;;;;;;;;;12.71;100.00;100403.94;5069533;28;19924;-65
2022/03/27 05:07:58;;;;;;;;;;;;;;;12.72;100.00;100405.63;5069014;28;19920;-65
2022/03/27 05:10:24;;;;;;;;;;;;;;;12.91;100.00;100401.84;5069342;28;19925;-65
2022/03/27 05:12:49;;;;;;;;;;;;;;;12.64;100.00;100402.34;5068681;28;19916;-65
2022/03/27 05:15:14;;;;;;;;;;;;;;;13.50;100.00;100405.84;5069138;28;19923;-65
2022/03/27 05:17:45;;;;;;;;;;;;;;;13.47;100.00;100411.09;5068957;28;19973;-65
2022/03/27 05:20:11;;;;;;;;;;;;;;;13.72;100.00;100417.44;5068959;28;20580;-65
2022/03/27 05:22:36;;;;;;;;;;;;;;;13.51;100.00;100413.56;5068603;28;19920;-65
2022/03/27 05:25:01;;;;;;;;;;;;;;;13.60;100.00;100417.72;5068796;28;20304;-65
2022/03/27 05:27:26;;;;;;;;;;;;;;;13.32;100.00;100415.72;5069151;28;20085;-65
2022/03/27 05:29:52;;;;;;;;;;;;;;;12.29;100.00;100412.41;5068667;28;19943;-65
2022/03/27 05:32:17;;;;;;;;;;;;;;;12.00;100.00;100410.28;5068939;28;19924;-65
2022/03/27 05:34:42;;;;;;;;;;;;;;;12.66;100.00;100418.69;5068948;28;19914;-64
2022/03/27 05:37:08;;;;;;;;;;;;;;;12.74;100.00;100419.38;5068938;28;19924;-65
2022/03/27 05:39:33;;;;;;;;;;;;;;;11.96;100.00;100425.84;5068564;28;19917;-65
2022/03/27 05:41:58;;;;;;;;;;;;;;;12.47;100.00;100426.72;5069138;28;19920;-65
2022/03/27 05:44:24;;;;;;;;;;;;;;;12.63;100.00;100426.47;5067268;28;19928;-64
2022/03/27 05:46:49;;;;;;;;;;;;;;;12.93;100.00;100428.50;5068389;28;19924;-65
2022/03/27 05:49:14;;;;;;;;;;;;;;;12.13;100.00;100434.16;5068540;28;19924;-65
2022/03/27 05:51:40;;;;;;;;;;;;;;;12.25;100.00;100431.41;5068573;28;20031;-65
2022/03/27 05:54:05;;;;;;;;;;;;;;;12.60;100.00;100436.88;5068331;28;19923;-65
2022/03/27 05:56:30;;;;;;;;;;;;;;;13.02;100.00;100434.38;5068756;28;20310;-65
2022/03/27 05:58:56;;;;;;;;;;;;;;;11.45;100.00;100436.81;5067655;28;19962;-65
2022/03/27 06:01:21;;;;;;;;;;;;;;;12.39;100.00;100436.34;5068115;28;20424;-65
2022/03/27 06:03:47;;;;;;;;;;;;;;;12.34;100.00;100440.75;5068590;28;19974;-65
2022/03/27 06:06:13;;;;;;;;;;;;;;;12.74;100.00;100445.22;5067363;28;20289;-65
2022/03/27 06:08:38;;;;;;;;;;;;;;;13.00;100.00;100447.34;5067705;28;20308;-65
2022/03/27 06:11:05;;;;;;;;;;;;;;;12.59;100.00;100450.66;5068072;28;19931;-65
2022/03/27 06:13:30;;;;;;;;;;;;;;;12.30;100.00;100455.44;5068355;28;19921;-65
2022/03/27 06:15:55;;;;;;;;;;;;;;;12.39;100.00;100454.44;5050434;28;19917;-65
2022/03/27 06:18:21;;;;;;;;;;;;;;;12.13;100.00;100447.06;5067389;28;19923;-65
2022/03/27 06:20:46;;;;;;;;;;;;;;;12.48;100.00;100449.13;5067379;28;19916;-65
2022/03/27 06:23:13;;;;;;;;;;;;;;;12.18;100.00;100465.97;5067963;28;19913;-65
2022/03/27 06:25:38;;;;;;;;;;;;;;;12.23;100.00;100460.72;5067968;28;19939;-64
2022/03/27 06:28:04;;;;;;;;;;;;;;;11.81;100.00;100457.84;5068611;28;20362;-65
2022/03/27 06:30:30;;;;;;;;;;;;;;;11.16;100.00;100455.22;5067489;28;19968;-65
2022/03/27 06:32:55;;;;;;;;;;;;;;;10.87;100.00;100458.94;5067867;28;20316;-65
2022/03/27 06:35:24;;;;;;;;;;;;;;;11.80;100.00;100461.31;5067255;28;19920;-65
2022/03/27 06:37:50;;;;;;;;;;;;;;;12.00;100.00;100472.25;5067489;28;19999;-65
2022/03/27 06:40:15;;;;;;;;;;;;;;;12.12;100.00;100466.91;5067572;28;20507;-65
2022/03/27 06:42:41;;;;;;;;;;;;;;;10.98;100.00;100466.56;5067650;28;19912;-65
2022/03/27 06:45:07;;;;;;;;;;;;;;;11.51;100.00;100457.38;5067588;28;19928;-65
2022/03/27 06:47:33;;;;;;;;;;;;;;;12.32;100.00;100469.19;5067658;28;19990;-65
2022/03/27 06:49:59;;;;;;;;;;;;;;;12.69;100.00;100462.56;5066691;28;19977;-65
2022/03/27 06:52:24;;;;;;;;;;;;;;;12.61;100.00;100459.25;5067189;28;20398;-65
2022/03/27 06:54:50;;;;;;;;;;;;;;;12.81;100.00;100456.31;5067069;28;19990;-65
2022/03/27 06:57:15;;;;;;;;;;;;;;;13.13;100.00;100459.16;5066694;28;19917;-65
2022/03/27 07:05:09;;;;;;;;;;;;;;;12.16;100.00;100457.38;5067446;28;20017;-64
2022/03/27 07:07:35;;;;;;;;;;;;;;;12.81;100.00;100449.41;5066749;28;20366;-65
2022/03/27 07:10:00;;;;;;;;;;;;;;;13.58;100.00;100455.72;5065985;28;19924;-65
2022/03/27 07:12:26;;;;;;;;;;;;;;;13.98;100.00;100450.53;5066619;28;20417;-65
2022/03/27 07:14:51;;;;;;;;;;;;;;;13.15;100.00;100453.97;5066208;28;20328;-64
2022/03/27 07:17:17;;;;;;;;;;;;;;;12.91;100.00;100453.53;5066993;28;20283;-65
2022/03/27 07:19:45;;;;;;;;;;;;;;;13.71;100.00;100448.56;5066698;28;19921;-65
2022/03/27 07:22:11;;;;;;;;;;;;;;;14.49;100.00;100451.06;5066679;28;19925;-65
2022/03/27 07:24:36;;;;;;;;;;;;;;;14.69;100.00;100438.47;5066600;28;19913;-65
2022/03/27 07:27:02;;;;;;;;;;;;;;;13.95;100.00;100445.41;5066097;28;19923;-65
2022/03/27 07:29:30;;;;;;;;;;;;;;;13.45;100.00;100449.09;5065940;28;19969;-64
2022/03/27 07:31:55;;;;;;;;;;;;;;;13.87;100.00;100452.50;5066369;28;19927;-64
2022/03/27 07:34:21;;;;;;;;;;;;;;;14.45;100.00;100452.88;5065536;28;19920;-65
2022/03/27 07:36:46;;;;;;;;;;;;;;;14.49;100.00;100451.06;5065238;28;19931;-65
2022/03/27 07:39:11;;;;;;;;;;;;;;;14.83;100.00;100445.91;5062712;28;19921;-66
2022/03/27 07:41:39;;;;;;;;;;;;;;;14.68;100.00;100448.88;5064896;28;19920;-65
2022/03/27 07:44:04;;;;;;;;;;;;;;;14.55;100.00;100454.38;5066189;28;19998;-65
2022/03/27 07:46:30;;;;;;;;;;;;;;;14.60;100.00;100455.13;5066257;28;20006;-65
2022/03/27 07:48:56;;;;;;;;;;;;;;;14.49;100.00;100457.09;5066076;28;20497;-64
2022/03/27 07:51:21;;;;;;;;;;;;;;;14.45;100.00;100460.63;5066098;28;19935;-65
2022/03/27 07:53:46;;;;;;;;;;;;;;;14.84;100.00;100455.38;5066256;28;19938;-65
2022/03/27 07:56:11;;;;;;;;;;;;;;;14.89;100.00;100453.50;5066136;28;19962;-65
2022/03/27 07:58:37;;;;;;;;;;;;;;;15.13;100.00;100458.94;5065437;28;19921;-66
2022/03/27 08:01:03;;;;;;;;;;;;;;;14.31;100.00;100457.53;5066250;28;20461;-65
2022/03/27 08:03:28;;;;;;;;;;;;;;;14.83;100.00;100451.09;5048599;28;19920;-65
2022/03/27 08:05:53;;;;;;;;;;;;;;;14.94;100.00;100449.06;5065497;28;20428;-66
2022/03/27 08:08:19;;;;;;;;;;;;;;;15.05;100.00;100454.81;5064923;28;19924;-66
2022/03/27 08:10:45;;;;;;;;;;;;;;;14.96;100.00;100455.06;5065719;28;19935;-66
2022/03/27 08:13:10;;;;;;;;;;;;;;;14.97;100.00;100448.13;5047425;28;19920;-65
2022/03/27 08:15:35;;;;;;;;;;;;;;;14.97;100.00;100454.16;5066138;28;19920;-66
2022/03/27 08:18:01;;;;;;;;;;;;;;;15.30;100.00;100456.69;5065885;28;19924;-65
2022/03/27 08:20:27;;;;;;;;;;;;;;;14.69;100.00;100448.84;5065999;28;19923;-65
2022/03/27 08:22:52;;;;;;;;;;;;;;;14.77;100.00;100456.41;5066318;28;19923;-66
2022/03/27 08:28:02;;;;;;;;;;;;;;;13.38;100.00;100459.56;5065993;28;19928;-66
2022/03/27 08:30:27;;;;;;;;;;;;;;;13.89;100.00;100461.09;5067266;28;19917;-64
2022/03/27 08:32:52;;;;;;;;;;;;;;;14.82;100.00;100464.94;5065872;28;19916;-64
2022/03/27 08:35:18;;;;;;;;;;;;;;;14.03;100.00;100463.38;5066009;28;20298;-64
2022/03/27 08:37:43;;;;;;;;;;;;;;;14.61;100.00;100467.19;5065310;28;19916;-63
2022/03/27 08:40:09;;;;;;;;;;;;;;;14.26;100.00;100464.59;5066066;28;20021;-64
2022/03/27 08:42:34;;;;;;;;;;;;;;;14.11;100.00;100461.44;5065961;28;19974;-64
2022/03/27 08:44:59;;;;;;;;;;;;;;;14.58;100.00;100464.66;5048979;28;19924;-64
2022/03/27 08:47:25;;;;;;;;;;;;;;;14.34;100.00;100454.88;5066121;28;19920;-64
2022/03/27 08:49:55;;;;;;;;;;;;;;;15.06;100.00;100456.50;5067703;28;20472;-64
2022/03/27 08:52:21;;;;;;;;;;;;;;;15.27;100.00;100451.59;5049394;28;19929;-64
2022/03/27 08:54:46;;;;;;;;;;;;;;;14.81;100.00;100450.25;5066811;28;20372;-63
2022/03/27 08:57:12;;;;;;;;;;;;;;;13.85;100.00;100461.19;5067529;28;20003;-64
2022/03/27 08:59:38;;;;;;;;;;;;;;;13.79;100.00;100475.97;5068119;28;19917;-64
2022/03/27 09:02:03;;;;;;;;;;;;;;;13.66;100.00;100477.13;5066149;28;19966;-64
2022/03/27 09:04:28;;;;;;;;;;;;;;;15.17;100.00;100466.59;5048978;28;20562;-64
2022/03/27 09:06:54;;;;;;;;;;;;;;;14.91;100.00;100469.88;5048095;28;19927;-64
2022/03/27 09:09:19;;;;;;;;;;;;;;;14.10;100.00;100470.09;5065671;28;19924;-65
2022/03/27 09:11:45;;;;;;;;;;;;;;;13.53;100.00;100479.09;5066585;28;20023;-64
2022/03/27 09:14:11;;;;;;;;;;;;;;;13.84;100.00;100485.38;5066106;28;19926;-64
2022/03/27 09:16:55;;;;;;;;;;;;;;;14.93;100.00;100486.25;5051006;28;20351;-64
2022/03/27 09:19:31;;;;;;;;;;;;;;;15.89;100.00;100472.31;5068034;28;19920;-63
2022/03/27 09:21:59;;;;;;;;;;;;;;;15.44;100.00;100470.16;5070383;28;20544;-64
2022/03/27 09:24:31;;;;;;;;;;;;;;;14.97;100.00;100469.72;5071662;28;19948;-64
2022/03/27 09:26:58;;;;;;;;;;;;;;;13.74;100.00;100472.63;5071924;28;20002;-64
2022/03/27 09:29:23;;;;;;;;;;;;;;;15.44;100.00;100467.56;5073889;28;19921;-64
2022/03/27 09:31:55;;;;;;;;;;;;;;;14.47;100.00;100470.97;5071696;28;19959;-64
2022/03/27 09:34:20;;;;;;;;;;;;;;;15.04;100.00;100476.44;5076635;28;19951;-59
2022/03/27 09:36:46;;;;;;;;;;;;;;;15.02;100.00;100477.38;5057670;28;19956;-64
2022/03/27 09:39:17;;;;;;;;;;;;;;;12.96;100.00;100472.41;5073099;28;20544;-64
2022/03/27 09:41:47;;;;;;;;;;;;;;;13.36;100.00;100482.03;5070843;28;19916;-59
2022/03/27 09:44:14;;;;;;;;;;;;;;;13.63;100.00;100473.75;5070559;28;19944;-58
2022/03/27 09:46:58;;;;;;;;;;;;;;;14.13;100.00;100485.56;5077155;28;20397;-58
2022/03/27 09:49:27;;;;;;;;;;;;;;;15.67;100.00;100481.63;5076882;28;19926;-58
2022/03/27 09:51:53;;;;;;;;;;;;;;;14.27;100.00;100484.41;5076489;28;19935;-57
2022/03/27 09:54:19;;;;;;;;;;;;;;;15.49;100.00;100477.81;5077842;28;19920;-57
2022/03/27 09:56:44;;;;;;;;;;;;;;;14.76;100.00;100478.91;5077243;28;19970;-58
2022/03/27 09:59:24;;;;;;;;;;;;;;;14.62;100.00;100471.50;5078778;28;20180;-58
2022/03/27 10:01:49;;;;;;;;;;;;;;;14.88;100.00;100467.38;5060588;28;20358;-60
2022/03/27 10:04:16;;;;;;;;;;;;;;;15.51;100.00;100464.78;5059433;28;19942;-57
2022/03/27 10:06:42;;;;;;;;;;;;;;;15.69;100.00;100465.09;5075440;28;19951;-59
2022/03/27 10:09:08;;;;;;;;;;;;;;;14.81;100.00;100469.25;5076911;28;19967;-58
2022/03/27 10:11:34;;;;;;;;;;;;;;;14.22;100.00;100458.59;5075368;28;19924;-58
2022/03/27 10:14:00;;;;;;;;;;;;;;;15.63;100.00;100457.50;5073786;28;19917;-59
2022/03/27 10:16:28;;;;;;;;;;;;;;;14.23;100.00;100458.56;5075102;28;20373;-58
2022/03/27 10:18:55;;;;;;;;;;;;;;;14.53;100.00;100463.91;5074874;28;19963;-58
2022/03/27 10:21:21;;;;;;;;;;;;;;;15.08;100.00;100459.06;5072842;28;19924;-58
2022/03/27 10:23:47;;;;;;;;;;;;;;;16.43;100.00;100449.84;5074399;28;20290;-58
2022/03/27 10:26:13;;;;;;;;;;;;;;;16.17;100.00;100449.81;5057967;28;20284;-58
2022/03/27 10:28:38;;;;;;;;;;;;;;;16.62;100.00;100442.25;5073175;28;19917;-59
2022/03/27 10:31:04;;;;;;;;;;;;;;;17.13;100.00;100438.78;5053952;28;19928;-58
2022/03/27 10:33:29;;;;;;;;;;;;;;;14.59;100.00;100448.22;5074725;28;20321;-59
2022/03/27 10:36:08;;;;;;;;;;;;;;;15.67;100.00;100446.13;5056123;28;19932;-59
2022/03/27 10:38:34;;;;;;;;;;;;;;;15.74;100.00;100448.56;5055125;28;19946;-58
2022/03/27 10:41:21;;;;;;;;;;;;;;;15.88;100.00;100446.41;5074431;28;19962;-59
2022/03/27 10:44:21;;;;;;;;;;;;;;;14.88;100.00;100443.19;5055299;28;19916;-58
2022/03/27 10:47:07;;;;;;;;;;;;;;;15.48;100.00;100450.97;4989816;28;20343;-57
2022/03/27 10:49:32;;;;;;;;;;;;;;;16.21;100.00;100438.44;4984594;28;19925;-58
2022/03/27 10:52:03;;;;;;;;;;;;;;;16.95;100.00;100434.25;4989265;28;20032;-57
2022/03/27 10:54:28;;;;;;;;;;;;;;;16.91;100.00;100427.44;4992641;28;20391;-59
2022/03/27 10:56:54;;;;;;;;;;;;;;;15.98;100.00;100428.78;4990628;28;20005;-58
2022/03/27 10:59:21;;;;;;;;;;;;;;;17.51;100.00;100413.06;4988258;28;19921;-59
2022/03/27 11:01:50;;;;;;;;;;;;;;;15.91;100.00;100422.06;4988008;28;19921;-59
2022/03/27 11:04:19;;;;;;;;;;;;;;;16.02;100.00;100425.19;4987274;28;20021;-57
2022/03/27 11:06:46;;;;;;;;;;;;;;;16.31;100.00;100419.06;4992371;28;19921;-59
2022/03/27 11:09:13;;;;;;;;;;;;;;;16.71;100.00;100412.50;4973966;28;19921;-60
2022/03/27 11:11:39;;;;;;;;;;;;;;;17.38;100.00;100411.84;4986349;28;19914;-58
2022/03/27 11:14:05;;;;;;;;;;;;;;;17.45;100.00;100408.09;4990836;28;19917;-60
2022/03/27 11:16:30;;;;;;;;;;;;;;;16.71;100.00;100415.94;4989294;28;19995;-60
2022/03/27 11:18:56;;;;;;;;;;;;;;;16.07;100.00;100412.88;4990389;28;19929;-59
2022/03/27 11:21:27;;;;;;;;;;;;;;;16.47;100.00;100416.78;5053978;28;20549;-58
2022/03/27 11:24:05;;;;;;;;;;;;;;;17.85;100.00;100396.16;5074906;28;19912;-60
2022/03/27 11:26:30;;;;;;;;;;;;;;;18.00;100.00;100393.88;5074930;28;19912;-59
2022/03/27 11:28:56;;;;;;;;;;;;;;;17.88;100.00;100385.63;5077297;28;19919;-59
2022/03/27 11:31:22;;;;;;;;;;;;;;;17.56;100.00;100385.09;5073359;28;19916;-57
2022/03/27 11:34:07;;;;;;;;;;;;;;;16.67;100.00;100384.88;5073749;28;20436;-58
2022/03/27 11:36:33;;;;;;;;;;;;;;;17.27;100.00;100388.81;5071693;28;19954;-57
2022/03/27 11:39:02;;;;;;;;;;;;;;;18.29;100.00;100382.22;5072464;28;19952;-58
2022/03/27 11:41:28;;;;;;;;;;;;;;;18.69;100.00;100367.50;5071966;28;19919;-58
2022/03/27 11:43:57;;;;;;;;;;;;;;;16.64;100.00;100377.19;5074160;28;19912;-59
2022/03/27 11:46:24;;;;;;;;;;;;;;;16.48;100.00;100377.72;5071188;28;19927;-59
2022/03/27 11:48:59;;;;;;;;;;;;;;;19.35;100.00;100361.94;5074396;28;19920;-58
2022/03/27 11:51:24;;;;;;;;;;;;;;;20.44;100.00;100341.78;5074328;28;19924;-58
2022/03/27 11:53:50;;;;;;;;;;;;;;;19.22;100.00;100344.19;5074279;28;19945;-58
2022/03/27 11:56:15;;;;;;;;;;;;;;;19.23;100.00;100347.69;5072630;28;19916;-58
2022/03/27 11:58:42;;;;;;;;;;;;;;;20.94;100.00;100334.84;5073469;28;19920;-59
2022/03/27 12:01:11;;;;;;;;;;;;;;;19.96;100.00;100330.28;5075809;28;19931;-57
2022/03/27 12:03:36;;;;;;;;;;;;;;;19.97;100.00;100331.94;5075079;28;19912;-57
2022/03/27 12:06:09;;;;;;;;;;;;;;;20.15;100.00;100331.97;5073047;28;19916;-58
2022/03/27 12:08:35;;;;;;;;;;;;;;;20.23;100.00;100322.81;5071285;28;20007;-57
2022/03/27 12:11:06;;;;;;;;;;;;;;;19.06;100.00;100324.94;5075097;28;19920;-58
2022/03/27 12:13:35;;;;;;;;;;;;;;;21.58;100.00;100306.91;5075591;28;19923;-57
2022/03/27 12:16:00;;;;;;;;;;;;;;;19.83;100.00;100310.88;5074477;28;20007;-60
2022/03/27 12:18:33;;;;;;;;;;;;;;;21.03;100.00;100299.47;5073194;28;20015;-58
2022/03/27 12:20:59;;;;;;;;;;;;;;;19.14;100.00;100307.16;5073377;28;19916;-58
2022/03/27 12:23:28;;;;;;;;;;;;;;;20.26;100.00;100295.66;5072294;28;19912;-58
2022/03/27 12:26:00;;;;;;;;;;;;;;;19.36;100.00;100301.78;5074130;28;19920;-59
2022/03/27 12:31:23;;;;;;;;;;;;;;;19.62;100.00;100287.47;5072465;28;19970;-57
2022/03/27 12:33:49;;;;;;;;;;;;;;;21.57;100.00;100278.97;5073721;28;19916;-59
2022/03/27 12:36:16;;;;;;;;;;;;;;;22.22;100.00;100272.63;5057332;28;20469;-59
2022/03/27 12:38:41;;;;;;;;;;;;;;;19.81;100.00;100276.13;5058092;28;19916;-59